• Join FlightAware (Why Join?)
  • Login
  • US Flag 
02:51PM EST


 

Airport Tracker/Info


-or-


 

Live Flight TrackerFlight Track Log ✈ DAL1421 ✈ 10-May-2014 ✈ KTPA - KDTW

Flight Track Log - Related Links

Times and Time Zones

All times are in EDT time to prevent confusion due to time zone crossing. See the DAL1421 flight status page for this flight to view local times or setup timezone preferences in your user account.

Time Position Orientation Groundspeed Altitude Reporting Facility
EDT Latitude Longitude Course Direction KTS MPH feet Rate Location/Type
06:47PM 27.9667 -82.5500 North 171 197 500  Level Tampa TRACON
06:48PM 27.9242 -82.6200 236° Southwest 185 213 4,200 2,290 Climbing Jacksonville Center
06:49PM 27.9286 -82.6525 279° West 244 281 5,500 3,000 Climbing Miami Center
06:50PM 27.9883 -82.7000 325° Northwest 290 334 9,000 2,829 Climbing Miami Center
06:51PM 28.5477 -82.5831 355° North  Level FlightAware Approximate
06:51PM 28.1000 -82.6806 North 333 383 11,300  Level Miami Center
06:52PM 28.6658 -82.5833 North  Level FlightAware Approximate
06:52PM 28.2103 -82.6628 North 383 441 11,900  Level Miami Center
06:53PM 28.3189 -82.6464 North 389 448 11,900  Level Miami Center
06:54PM 28.4275 -82.6278 North 390 449 11,900 194 Level Miami Center
06:55PM 28.5361 -82.6097 North 390 449 12,300 1,707 Climbing Miami Center
06:56PM 28.6558 -82.5925 North 398 458 15,400 2,732 Climbing Miami Center
06:57PM 28.7725 -82.6028 356° North 415 478 17,900 2,244 Climbing Miami Center
06:58PM 28.8939 -82.6200 353° North 435 501 20,000 2,098 Climbing Miami Center
06:59PM 29.0194 -82.6375 353° North 451 519 22,200 2,049 Climbing Miami Center
07:00PM 29.1464 -82.6558 353° North 456 525 24,200 1,902 Climbing Miami Center
07:01PM 29.2772 -82.6736 353° North 471 542 26,100 1,707 Climbing Miami Center
07:02PM 29.4325 -82.6947 353° North 469 540 27,700 1,370 Climbing Miami Center
07:03PM 29.5692 -82.6944 360° North 478 550 29,000 1,619 Climbing Jacksonville Center
07:04PM 29.7047 -82.6964 359° North 483 556 31,100 2,150 Climbing Jacksonville Center
07:05PM 29.8322 -82.6939 North 472 543 33,300 1,450 Climbing Jacksonville Center
07:06PM 29.9617 -82.6911 North 467 537 34,000 300 Climbing Jacksonville Center
07:07PM 30.0867 -82.6742 North 461 531 33,900  Descending Jacksonville Center
07:08PM 30.2203 -82.6569 North 466 536 34,000 50 Climbing Jacksonville Center
07:09PM 30.3478 -82.6447 North 466 536 34,000 450 Level Jacksonville Center
07:10PM 30.4750 -82.6322 North 461 531 34,900 450 Climbing Jacksonville Center
07:11PM 30.6003 -82.6197 North 461 531 34,900 50 Level Jacksonville Center
07:12PM 30.7275 -82.6050 North 461 531 35,000 250 Climbing Jacksonville Center
07:13PM 30.8550 -82.5900 North 461 531 35,400 800 Climbing Jacksonville Center
07:14PM 30.9803 -82.5775 North 461 531 36,600 750 Climbing Jacksonville Center
07:15PM 31.1097 -82.5603 North 461 531 36,900 150 Climbing Jacksonville Center
07:16PM 31.2350 -82.5475 North 461 531 36,900 536 Level Jacksonville Center
07:19PM 31.6158 -82.4978 North 456 525 39,000 536 Climbing Atlanta Center
07:20PM 31.7431 -82.4758 North 463 533 39,000  Level Atlanta Center
07:21PM 31.8722 -82.4567 North 468 539 39,000  Level Atlanta Center
07:22PM 31.9992 -82.4322 North 462 532 39,000  Level Atlanta Center
07:23PM 32.1344 -82.4128 North 462 532 39,000  Level Atlanta Center
07:24PM 32.2761 -82.3928 North 462 532 39,000  Level Atlanta Center
07:25PM 32.4075 -82.3708 North 462 532 39,000  Level Atlanta Center
07:26PM 32.5344 -82.3511 North 462 532 39,000  Level Atlanta Center
07:27PM 32.6678 -82.3314 North 467 537 39,000  Level Atlanta Center
07:28PM 32.7947 -82.3139 North 467 537 39,000  Level Atlanta Center
07:29PM 32.9261 -82.2892 North 469 540 39,000  Level Atlanta Center
07:30PM 33.0550 -82.2667 North 463 533 39,000  Level Atlanta Center
07:31PM 33.1842 -82.2467 North 463 533 39,000  Level Atlanta Center
07:32PM 33.3133 -82.2242 North 463 533 39,000  Level Atlanta Center
07:33PM 33.4319 -82.2042 North 463 533 39,000  Level Atlanta Center
07:34PM 33.5589 -82.1817 North 463 533 39,000  Level Atlanta Center
07:35PM 33.6964 -82.1611 North 468 539 39,000  Level Atlanta Center
07:36PM 33.8297 -82.1383 North 473 544 39,000  Level Atlanta Center
07:37PM 33.9628 -82.1153 North 483 556 39,000  Level Atlanta Center
07:38PM 34.0939 -82.0922 North 483 556 39,000  Level Atlanta Center
07:39PM 34.2272 -82.0717 North 483 556 39,000  Level Atlanta Center
07:40PM 34.3708 -82.0456 North 483 556 39,000  Level Atlanta Center
07:41PM 34.4997 -82.0225 North 483 556 39,000  Level Atlanta Center
07:42PM 34.6289 -82.0017 North 473 544 39,000  Level Atlanta Center
07:43PM 34.7578 -81.9783 North 473 544 39,000  Level Atlanta Center
07:44PM 34.8889 -81.9522 North 473 544 39,000  Level Atlanta Center
07:45PM 35.0158 -81.9339 North 468 539 39,000  Level Atlanta Center
07:46PM 35.1431 -81.9356 359° North 463 533 39,000  Level Atlanta Center
07:47PM 35.2747 -81.9375 359° North 457 526 39,000  Level Atlanta Center
07:48PM 35.4061 -81.9417 359° North 462 532 39,000  Level Atlanta Center
07:49PM 35.5336 -81.9461 358° North 462 532 39,000  Level Atlanta Center
07:50PM 35.6650 -81.9478 359° North 462 532 39,000  Level Atlanta Center
07:51PM 35.7944 -81.9522 358° North 462 532 39,000  Level Atlanta Center
07:52PM 35.9278 -81.9539 359° North 462 532 39,000  Level Atlanta Center
07:54PM 36.1231 -81.9542 360° North 475 547 39,000  Level Indianapolis Center
07:55PM 36.2569 -81.9583 359° North 477 549 39,000  Level Indianapolis Center
07:56PM 36.3906 -81.9608 359° North 481 554 39,000  Level Indianapolis Center
07:57PM 36.5219 -81.9642 359° North 479 551 39,000  Level Indianapolis Center
07:58PM 36.6531 -81.9678 359° North 478 550 39,000  Level Indianapolis Center
07:59PM 36.7856 -81.9725 358° North 477 549 39,000  Level Indianapolis Center
08:00PM 36.9194 -81.9758 359° North 478 550 39,000  Level Indianapolis Center
08:01PM 37.0739 -81.9797 359° North 478 550 39,000  Level Indianapolis Center
08:02PM 37.2078 -81.9828 359° North 478 550 39,000  Level Indianapolis Center
08:03PM 37.3397 -81.9872 358° North 478 550 39,000 -198 Level Indianapolis Center
08:04PM 37.4678 -81.9906 359° North 467 537 38,600 -694 Descending Indianapolis Center
08:05PM 37.5894 -81.9942 359° North 446 513 37,600 -787 Descending Indianapolis Center
08:06PM 37.7131 -81.9958 359° North 442 509 37,000 -295 Descending Indianapolis Center
08:07PM 37.8397 -82.0006 358° North 449 517 37,000  Level Indianapolis Center
08:08PM 37.9592 -82.0039 359° North 455 524 37,000  Level Indianapolis Center
08:09PM 38.0875 -82.0072 359° North 457 526 37,000  Level Indianapolis Center
08:10PM 38.2419 -82.0119 359° North 457 526 37,000  Level Indianapolis Center
08:11PM 38.3714 -82.0158 359° North 458 527 37,000  Level Indianapolis Center
08:12PM 38.5019 -82.0200 359° North 460 529 37,000  Level Indianapolis Center
08:13PM 38.6331 -82.0233 359° North 462 532 37,000  Level Indianapolis Center
08:14PM 38.7653 -82.0286 358° North 464 534 37,000  Level Indianapolis Center
08:15PM 38.8919 -82.0478 353° North 460 529 37,000 -295 Level Indianapolis Center
08:16PM 39.0200 -82.0678 353° North 459 528 36,400 -738 Descending Indianapolis Center
08:17PM 39.1486 -82.0883 353° North 459 528 35,500 -694 Descending Indianapolis Center
08:18PM 39.2786 -82.1081 353° North 463 533 35,000 -248 Descending Indianapolis Center
08:19PM 39.4067 -82.1275 353° North 463 533 35,000  Level Indianapolis Center
08:20PM 39.5356 -82.1492 353° North 460 529 35,000  Level Indianapolis Center
08:21PM 39.6608 -82.1700 353° North 458 527 35,000  Level Indianapolis Center
08:22PM 39.7867 -82.1903 353° North 458 527 35,000  Level Indianapolis Center
08:23PM 39.9142 -82.2108 353° North 458 527 35,000  Level Indianapolis Center
08:24PM 40.0425 -82.2306 353° North 461 531 35,000 -393 Level Indianapolis Center
08:25PM 40.1703 -82.2517 353° North 462 532 34,200 -836 Descending Indianapolis Center
08:26PM 40.2967 -82.2739 352° North 464 534 33,300 -1,240 Descending Indianapolis Center
08:27PM 40.4269 -82.2944 353° North 464 534 31,700 -1,636 Descending Indianapolis Center
08:28PM 40.5519 -82.3250 349° North 458 527 30,000 -1,030 Descending Indianapolis Center
08:29PM 40.6289 -82.3739 334° Northwest 454 522 30,000 -364 Level Cleveland Center
08:30PM 40.7444 -82.4461 335° Northwest 453 521 29,400 -738 Descending Cleveland Center
08:31PM 40.8594 -82.5194 334° Northwest 453 521 28,500 -927 Descending Cleveland Center
08:32PM 40.9761 -82.5917 335° Northwest 455 524 27,500 -1,024 Descending Cleveland Center
08:33PM 41.0886 -82.6628 335° Northwest 446 513 26,400 -1,033 Descending Cleveland Center
08:34PM 41.1997 -82.7331 335° Northwest 440 506 25,400 -1,574 Descending Cleveland Center
08:35PM 41.3092 -82.8031 334° Northwest 435 501 23,200 -2,459 Descending Cleveland Center
08:36PM 41.4133 -82.8686 335° Northwest 412 474 20,400 -2,656 Descending Cleveland Center
08:37PM 41.5108 -82.9314 334° Northwest 389 448 17,800 -2,656 Descending Cleveland Center
08:38PM 41.6044 -82.9922 334° Northwest 375 432 15,000 -2,824 Descending Cleveland Center
08:39PM 41.7039 -83.0592 333° Northwest 358 412 12,200 -1,385 Descending Cleveland Center
08:40PM 41.8053 -83.1317 332° Northwest 343 395 12,000 -95 Descending Cleveland Center
08:41PM 41.8717 -83.1833 330° Northwest 345 397 12,000  Level Cleveland Center
08:42PM 41.9469 -83.2389 331° Northwest 281 323 12,000  Level Cleveland Center
08:42PM 41.9681 -83.2494 340° North 269 310 12,000  Level Cleveland Center
08:43PM 42.0211 -83.2511 359° North 276 318 12,000  Level Cleveland Center
08:43PM 42.0453 -83.2517 359° North 258 297 12,000  Level Cleveland Center
08:44PM 42.0881 -83.2506 North 241 277 12,000  Level Cleveland Center
08:44PM 42.1019 -83.2511 358° North 225 259 12,000 -1,180 Level Cleveland Center
08:45PM 42.1511 -83.2269 20° North 251 289 10,800 -1,644 Descending Cleveland Center
08:46PM 42.1783 -83.2111 23° Northeast 249 287 10,000 -1,770 Descending Cleveland Center
08:46PM 42.2147 -83.1872 26° Northeast 246 283 9,000 -1,732 Descending Cleveland Center
08:47PM 42.2750 -83.1511 24° Northeast 238 274 7,200 -1,707 Descending Cleveland Center
08:48PM 42.3342 -83.1164 23° Northeast 239 275 5,500 -1,671 Descending Cleveland Center
08:48PM 42.3531 -83.1167 359° North 226 260 5,000 -1,180 Descending Cleveland Center
08:49PM 42.3764 -83.1558 309° West 216 249 4,300 -1,113 Descending Cleveland Center
08:50PM 42.3769 -83.2161 271° West 195 224 3,200 -639 Descending Cleveland Center
08:51PM 42.3311 -83.2528 211° Southwest 197 227 3,000 -504 Descending Cleveland Center
08:52PM 42.2853 -83.2858 208° Southwest 191 220 2,100 -915 Descending Cleveland Center
08:53PM 42.2436 -83.3161 208° Southwest 150 173 1,200 -492 Descending Cleveland Center
08:54PM 42.2131 -83.3386 209° Southwest 162 186 1,100 -92 Descending Cleveland Center